Kezdőlap
METAR-TAF:

METAR-TAF

Repülőterek :

Portland International Jetport

Portland, Maine, Amerikai Egyesült Államok

földrajzi szélesség: 43-38-32N, földrajzi hosszúság: 070-18-16W, magasság: 22 m

Jelenlegi meteorológiai megfigyelések

A jelentés 44 perccel ezelõtt készült, 12:51 UTC
Szélcsend
Hőmérséklet -17°C
Páratartalom 65%
Légköri nyomás 1029 hPa
Látótávolság: 16.1 km
Kevés felhő 100 lábon
Kevés felhő 3000 lábon

METAR: KPWM 211251Z 00000KT 10SM FEW001 FEW030 M17/M22 A3040 RMK AO2 SLP296 T11721222

Idő: 08:35 (13:35 UTC)

Előrejelzés

A jelentés 2 órával és 5 perccel ezelõtt készült, 11:30 UTC
Az előrejelzés 21-én 12 óra UTC és 22-én 12 óra UTC között érvényes
Észak-északnyugati szél 7 kt
Látótávolság: 10 km
Kevés felhő 25000 lábon
22-én 0300 órától UTC szerint
Nyugati szél 6 kt
Látótávolság: 10 km
Szakadozott felhőzet 7000 lábon

TAF: KPWM 211130Z 2112/2212 33007KT P6SM FEW250 FM220300 27006KT P6SM BKN070

Meteorológiai megfigyelések és előrejelzések több, mint 4000 repülőtéren (METAR és TAF jelentéseket).

A térképen piros és sárga pontok jelzik az elérhető meteorológiai állomásokat.

Mozgassa az egeret a pont fölött, hogy megjelenjen az állomás neve.

Azután kattintson az időjárási megfigyelések és előrejelzések megtekintéséhez.

A térkép megváltoztatása: kattintson a fekete keresztel jelölt zöld gombra ráközelítéshez, a vonallal jelölt zöld gombra távolításhoz, vagy a zöld nyilakra a szomszédos térképek eléréséhez.


METAR-TAF: